createdAt,value
2019-01-15T00:00:42.481Z,3.03
2019-01-15T00:03:11.953Z,3.13
2019-01-15T00:05:41.449Z,3.30
2019-01-15T00:08:10.938Z,3.53
2019-01-15T00:10:40.506Z,3.73
2019-01-15T00:13:09.972Z,3.63
2019-01-15T00:15:39.459Z,4.10
2019-01-15T00:18:08.949Z,3.50
2019-01-15T00:20:38.438Z,3.90
2019-01-15T00:23:08.069Z,3.80
2019-01-15T00:25:37.600Z,3.70
2019-01-15T00:28:07.056Z,3.17
2019-01-15T00:30:36.522Z,3.33
2019-01-15T00:33:06.028Z,3.80
2019-01-15T00:35:35.537Z,3.47
2019-01-15T00:38:05.343Z,3.30
2019-01-15T00:40:34.776Z,3.40
2019-01-15T00:43:04.332Z,3.20
2019-01-15T00:45:33.748Z,3.37
2019-01-15T00:48:03.169Z,4.30
2019-01-15T00:50:32.677Z,3.50
2019-01-15T00:53:02.247Z,3.90
2019-01-15T00:55:31.769Z,3.50
2019-01-15T00:58:01.323Z,3.70
2019-01-15T01:00:30.791Z,3.37
2019-01-15T01:03:00.275Z,2.90
2019-01-15T01:05:29.831Z,2.90
2019-01-15T01:07:59.337Z,3.27
2019-01-15T01:10:28.822Z,3.87
2019-01-15T01:12:58.231Z,4.17
2019-01-15T01:15:27.731Z,3.43
2019-01-15T01:17:57.200Z,4.50
2019-01-15T01:20:26.693Z,5.27
2019-01-15T01:22:56.181Z,5.50
2019-01-15T01:25:25.611Z,7.10
2019-01-15T01:27:55.080Z,5.70
2019-01-15T01:30:24.631Z,5.33
2019-01-15T01:32:54.057Z,4.47
2019-01-15T01:35:23.467Z,5.43
2019-01-15T01:37:52.889Z,6.33
2019-01-15T01:40:22.397Z,6.00
2019-01-15T01:42:52.039Z,5.83
2019-01-15T01:45:21.543Z,5.40
2019-01-15T01:47:51.017Z,4.63
2019-01-15T01:50:20.408Z,3.33
2019-01-15T01:52:49.787Z,3.20
2019-01-15T01:55:19.231Z,3.30
2019-01-15T01:57:48.629Z,3.30
2019-01-15T02:00:20.204Z,4.30
2019-01-15T02:02:49.811Z,3.30
2019-01-15T02:05:19.183Z,3.17
2019-01-15T02:07:48.757Z,3.73
2019-01-15T02:10:19.607Z,3.63
2019-01-15T02:12:49.703Z,3.63
2019-01-15T02:15:23.719Z,3.53
2019-01-15T02:17:53.325Z,3.77
2019-01-15T02:20:23.011Z,4.00
2019-01-15T02:22:52.455Z,3.70
2019-01-15T02:25:21.969Z,3.30
2019-01-15T02:27:53.302Z,3.73
2019-01-15T02:30:26.731Z,3.40
2019-01-15T02:32:56.188Z,3.93
2019-01-15T02:35:26.131Z,4.40
2019-01-15T02:37:55.697Z,3.47
2019-01-15T02:40:25.051Z,4.00
2019-01-15T02:42:54.414Z,3.90
2019-01-15T02:45:23.842Z,3.40
2019-01-15T02:47:53.275Z,3.67
2019-01-15T02:50:22.905Z,3.63
2019-01-15T02:52:52.348Z,3.40
2019-01-15T02:55:21.785Z,3.40
2019-01-15T02:57:51.163Z,3.57
2019-01-15T03:00:22.445Z,3.60
2019-01-15T03:02:51.974Z,4.20
2019-01-15T03:05:21.585Z,4.07
2019-01-15T03:07:51.012Z,3.70
2019-01-15T03:10:20.981Z,4.60
2019-01-15T03:12:55.872Z,4.20
2019-01-15T03:15:24.045Z,3.90
2019-01-15T03:17:53.738Z,4.43
2019-01-15T03:20:23.192Z,4.17
2019-01-15T03:22:52.691Z,4.43
2019-01-15T03:25:22.143Z,4.37
2019-01-15T03:27:51.609Z,4.03
2019-01-15T03:30:24.857Z,3.93
2019-01-15T03:32:54.372Z,4.00
2019-01-15T03:35:23.799Z,4.40
2019-01-15T03:37:53.161Z,3.63
2019-01-15T03:40:26.847Z,4.40
2019-01-15T03:43:03.481Z,4.80
2019-01-15T03:45:27.503Z,3.97
2019-01-15T03:47:56.853Z,3.50
2019-01-15T03:50:26.298Z,4.27
2019-01-15T03:52:56.023Z,4.00
2019-01-15T03:55:25.466Z,4.17
2019-01-15T03:57:55.010Z,3.90
2019-01-15T04:00:27.336Z,4.23
2019-01-15T04:02:57.265Z,4.97
2019-01-15T04:05:26.683Z,5.50
2019-01-15T04:07:57.987Z,4.30
2019-01-15T04:10:27.534Z,5.87
2019-01-15T04:12:57.119Z,4.83
2019-01-15T04:15:26.569Z,5.07
2019-01-15T04:17:56.130Z,4.93
2019-01-15T04:20:25.623Z,4.50
2019-01-15T04:22:55.070Z,5.60
2019-01-15T04:25:24.564Z,5.23
2019-01-15T04:27:54.034Z,5.20
2019-01-15T04:30:24.158Z,5.27
2019-01-15T04:32:53.600Z,5.33
2019-01-15T04:35:23.132Z,5.00
2019-01-15T04:37:52.596Z,4.47
2019-01-15T04:40:22.516Z,5.00
2019-01-15T04:42:52.022Z,5.17
2019-01-15T04:45:23.023Z,5.17
2019-01-15T04:47:52.521Z,5.60
2019-01-15T04:50:21.988Z,5.30
2019-01-15T04:52:58.958Z,5.03
2019-01-15T04:55:28.393Z,4.67
2019-01-15T04:57:57.831Z,4.40
2019-01-15T05:00:27.347Z,3.87
2019-01-15T05:02:59.411Z,3.63
2019-01-15T05:05:28.842Z,5.43
2019-01-15T05:07:58.217Z,3.77
2019-01-15T05:10:27.596Z,4.40
2019-01-15T05:12:57.040Z,3.60
2019-01-15T05:15:26.489Z,3.60
2019-01-15T05:17:55.848Z,3.80
2019-01-15T05:20:25.279Z,3.70
2019-01-15T05:22:54.650Z,3.40
2019-01-15T05:25:24.067Z,3.73
2019-01-15T05:27:53.438Z,3.53
2019-01-15T05:30:24.797Z,3.53
2019-01-15T05:32:54.153Z,3.70
2019-01-15T05:35:23.660Z,3.90
2019-01-15T05:37:53.106Z,3.37
2019-01-15T05:40:23.292Z,3.43
2019-01-15T05:42:52.743Z,3.37
2019-01-15T05:45:33.589Z,3.40
2019-01-15T05:48:07.369Z,3.10
2019-01-15T05:50:52.759Z,3.20
2019-01-15T05:53:22.223Z,3.07
2019-01-15T05:55:51.590Z,3.20
2019-01-15T05:58:20.937Z,2.90
2019-01-15T06:00:50.378Z,2.60
2019-01-15T06:03:19.801Z,3.20
2019-01-15T06:05:49.248Z,2.70
2019-01-15T06:08:18.590Z,3.23
2019-01-15T06:10:47.985Z,3.13
2019-01-15T06:13:17.344Z,3.20
2019-01-15T06:15:46.708Z,3.07
2019-01-15T06:18:16.091Z,2.90
2019-01-15T06:20:45.540Z,3.07
2019-01-15T06:23:14.907Z,2.73
2019-01-15T06:25:44.259Z,3.73
2019-01-15T06:28:13.958Z,4.03
2019-01-15T06:30:43.353Z,3.00
2019-01-15T06:33:12.864Z,3.23
2019-01-15T06:35:42.225Z,3.40
2019-01-15T06:38:11.574Z,3.70
2019-01-15T06:40:40.948Z,3.17
2019-01-15T06:43:10.317Z,3.73
2019-01-15T06:45:39.774Z,3.87
2019-01-15T06:48:09.306Z,3.20
2019-01-15T06:50:38.696Z,4.17
2019-01-15T06:53:08.186Z,3.80
2019-01-15T06:55:37.643Z,3.67
2019-01-15T06:58:07.820Z,3.20
2019-01-15T07:00:37.312Z,3.43
2019-01-15T07:03:06.809Z,3.63
2019-01-15T07:05:36.313Z,3.30
2019-01-15T07:08:05.809Z,3.13
2019-01-15T07:10:37.580Z,3.77
2019-01-15T07:13:07.189Z,3.40
2019-01-15T07:15:36.924Z,3.60
2019-01-15T07:18:06.656Z,3.20
2019-01-15T07:20:36.086Z,3.00
2019-01-15T07:23:05.473Z,3.37
2019-01-15T07:25:34.972Z,3.10
2019-01-15T07:28:04.646Z,3.63
2019-01-15T07:30:37.005Z,3.57
2019-01-15T07:33:07.229Z,3.73
2019-01-15T07:35:36.794Z,3.70
2019-01-15T07:38:06.243Z,3.37
2019-01-15T07:40:35.626Z,3.80
2019-01-15T07:43:05.067Z,4.37
2019-01-15T07:45:34.506Z,4.47
2019-01-15T07:48:03.973Z,3.93
2019-01-15T07:50:35.090Z,3.63
2019-01-15T07:53:05.437Z,3.70
2019-01-15T07:55:34.826Z,3.53
2019-01-15T07:58:04.403Z,4.33
2019-01-15T08:00:33.854Z,3.50
2019-01-15T08:03:03.422Z,3.93
2019-01-15T08:05:32.951Z,4.00
2019-01-15T08:08:02.427Z,3.63
2019-01-15T08:10:32.373Z,3.93
2019-01-15T08:13:01.871Z,3.87
2019-01-15T08:15:31.339Z,5.03
2019-01-15T08:18:00.780Z,3.43
2019-01-15T08:20:30.169Z,3.70
2019-01-15T08:22:59.680Z,3.60
2019-01-15T08:25:30.934Z,4.33
2019-01-15T08:28:03.076Z,4.30
2019-01-15T08:30:36.698Z,3.83
2019-01-15T08:33:07.888Z,3.67
2019-01-15T08:35:38.740Z,4.03
2019-01-15T08:38:09.254Z,4.10
2019-01-15T08:40:39.406Z,4.00
2019-01-15T08:43:09.693Z,3.83
2019-01-15T08:45:39.956Z,3.50
2019-01-15T08:48:18.387Z,3.73
2019-01-15T08:50:51.129Z,3.40
2019-01-15T08:53:24.759Z,3.80
2019-01-15T08:55:59.610Z,3.00
2019-01-15T08:58:30.161Z,3.33
2019-01-15T09:01:00.931Z,3.50
2019-01-15T09:30:45.718Z,3.30
2019-01-15T09:33:15.097Z,3.37
2019-01-15T09:35:44.462Z,3.70
2019-01-15T09:38:14.236Z,4.10
2019-01-15T09:40:43.674Z,3.23
2019-01-15T09:43:13.226Z,3.63
2019-01-15T09:45:42.668Z,3.70
2019-01-15T09:48:33.870Z,3.80
2019-01-15T09:51:03.243Z,3.53
2019-01-15T09:53:32.723Z,3.40
2019-01-15T09:56:02.213Z,4.17
2019-01-15T09:58:31.671Z,3.27
2019-01-15T10:01:01.130Z,3.77
2019-01-15T10:03:30.487Z,3.43
2019-01-15T10:05:59.938Z,3.13
2019-01-15T10:08:29.298Z,3.87
2019-01-15T10:10:58.668Z,3.63
2019-01-15T10:13:28.258Z,3.50
2019-01-15T10:15:57.700Z,3.20
2019-01-15T10:18:27.104Z,3.30
2019-01-15T10:20:56.444Z,3.30
2019-01-15T10:23:25.991Z,3.40
2019-01-15T10:25:55.465Z,3.70
2019-01-15T10:28:24.977Z,3.03
2019-01-15T10:31:32.580Z,4.43
2019-01-15T10:34:09.102Z,3.97
2019-01-15T10:36:37.193Z,3.87
2019-01-15T10:39:10.385Z,3.80
2019-01-15T10:41:39.760Z,3.87
2019-01-15T10:44:09.334Z,3.70
2019-01-15T10:46:38.906Z,4.07
2019-01-15T10:49:08.374Z,3.73
2019-01-15T10:51:38.200Z,4.13
2019-01-15T10:54:07.927Z,3.93
2019-01-15T10:56:37.724Z,3.70
2019-01-15T10:59:07.233Z,3.40
2019-01-15T11:01:36.713Z,3.37
2019-01-15T11:04:06.212Z,3.87
2019-01-15T11:06:35.591Z,3.60
2019-01-15T11:09:08.864Z,3.40
2019-01-15T11:11:38.261Z,3.43
2019-01-15T11:14:09.985Z,3.90
2019-01-15T11:16:39.398Z,3.60
2019-01-15T11:19:08.994Z,4.00
2019-01-15T11:21:38.323Z,3.83
2019-01-15T11:24:07.780Z,3.70
2019-01-15T11:26:37.209Z,2.90
2019-01-15T11:29:06.637Z,3.47
2019-01-15T11:31:36.133Z,3.47
2019-01-15T11:34:05.543Z,3.13
2019-01-15T11:36:34.950Z,2.73
2019-01-15T11:39:07.757Z,3.00
2019-01-15T11:41:37.160Z,3.27
2019-01-15T11:44:06.680Z,2.67
2019-01-15T11:46:36.032Z,3.37
2019-01-15T11:49:05.415Z,3.10
2019-01-15T11:51:34.734Z,2.77
2019-01-15T11:54:04.243Z,3.13
2019-01-15T11:56:33.668Z,3.03
2019-01-15T11:59:03.046Z,3.27
2019-01-15T12:01:50.485Z,3.63
2019-01-15T12:04:46.114Z,3.03
2019-01-15T12:07:34.522Z,3.13
2019-01-15T12:10:26.878Z,2.73
2019-01-15T12:13:13.867Z,3.00
2019-01-15T12:16:00.761Z,2.70
2019-01-15T12:18:47.100Z,2.90
2019-01-15T12:21:29.278Z,2.87
2019-01-15T12:24:16.117Z,3.13
2019-01-15T12:27:01.975Z,2.90
2019-01-15T12:29:50.080Z,3.20
2019-01-15T12:32:37.191Z,2.97
2019-01-15T12:35:24.278Z,2.70
2019-01-15T12:38:04.105Z,3.30
2019-01-15T12:40:55.529Z,2.67
2019-01-15T12:43:34.344Z,2.97
2019-01-15T12:46:26.003Z,3.07
2019-01-15T12:49:13.129Z,3.10
2019-01-15T12:51:56.143Z,3.30
2019-01-15T12:54:43.064Z,2.77
2019-01-15T12:57:46.943Z,3.23
2019-01-15T13:00:35.564Z,3.37
2019-01-15T13:03:27.014Z,3.00
2019-01-15T13:06:28.498Z,3.30
2019-01-15T13:09:21.930Z,3.43
2019-01-15T13:12:01.798Z,3.43
2019-01-15T13:14:57.190Z,3.20
2019-01-15T13:17:51.405Z,3.17
2019-01-15T13:20:38.581Z,3.63
2019-01-15T13:23:39.092Z,3.20
2019-01-15T13:26:42.617Z,2.80
2019-01-15T13:29:31.074Z,3.20
2019-01-15T13:32:18.291Z,3.90
2019-01-15T13:34:55.093Z,3.40
2019-01-15T13:37:54.688Z,3.70
2019-01-15T13:40:41.493Z,3.60
2019-01-15T13:43:28.804Z,3.47
2019-01-15T13:46:18.790Z,3.43
2019-01-15T13:49:15.921Z,3.60
2019-01-15T13:52:02.921Z,3.87
2019-01-15T13:54:41.817Z,3.40
2019-01-15T13:57:31.988Z,3.50
2019-01-15T14:00:32.369Z,3.33
2019-01-15T14:03:19.291Z,3.73
2019-01-15T14:06:06.547Z,3.70
2019-01-15T14:08:54.083Z,3.40
2019-01-15T14:11:57.748Z,3.50
2019-01-15T14:14:40.399Z,4.33
2019-01-15T14:17:28.825Z,3.87
2019-01-15T14:20:13.198Z,3.57
2019-01-15T14:23:00.498Z,3.70
2019-01-15T14:25:45.788Z,3.37
2019-01-15T14:28:48.972Z,3.67
2019-01-15T14:31:40.512Z,4.27
2019-01-15T14:34:24.817Z,4.33
2019-01-15T14:37:11.153Z,4.17
2019-01-15T14:40:17.712Z,3.50
2019-01-15T14:43:09.232Z,3.77
2019-01-15T14:46:09.962Z,3.83
2019-01-15T14:49:10.646Z,3.80
2019-01-15T14:51:59.130Z,3.47
2019-01-15T14:54:47.545Z,3.00
2019-01-15T14:57:34.687Z,3.50
2019-01-15T15:00:30.088Z,3.50
2019-01-15T15:03:15.454Z,2.90
2019-01-15T15:06:04.840Z,3.67
2019-01-15T15:09:05.288Z,3.57
2019-01-15T15:11:53.654Z,3.07
2019-01-15T15:14:41.194Z,3.60
2019-01-15T15:17:29.631Z,3.50
2019-01-15T15:20:17.063Z,3.87
2019-01-15T15:23:08.589Z,3.90
2019-01-15T15:25:44.983Z,3.77
2019-01-15T15:28:22.053Z,4.50
2019-01-15T15:31:16.400Z,4.43
2019-01-15T15:34:16.554Z,4.13
2019-01-15T15:37:08.126Z,4.60
2019-01-15T15:39:50.160Z,4.13
2019-01-15T15:42:48.739Z,4.70
2019-01-15T15:45:37.337Z,4.23
2019-01-15T15:48:35.146Z,4.10
2019-01-15T15:51:22.815Z,4.10
2019-01-15T15:54:14.382Z,3.87
2019-01-15T15:57:11.875Z,4.03
2019-01-15T16:00:06.442Z,4.50
2019-01-15T16:02:53.840Z,4.30
2019-01-15T16:05:45.075Z,3.80
2019-01-15T16:08:26.927Z,4.43
2019-01-15T16:11:19.859Z,4.47
2019-01-15T16:14:23.439Z,4.53
2019-01-15T16:17:14.706Z,4.53
2019-01-15T16:20:01.764Z,4.40
2019-01-15T16:22:56.431Z,4.90
2019-01-15T16:25:35.096Z,4.93
2019-01-15T16:28:37.212Z,4.70
2019-01-15T16:31:19.812Z,5.20
2019-01-15T16:34:23.321Z,4.67
2019-01-15T16:37:10.535Z,5.13
2019-01-15T16:40:09.747Z,5.03
2019-01-15T16:43:13.318Z,5.37
2019-01-15T16:45:59.546Z,5.23
2019-01-15T16:48:41.539Z,5.97
2019-01-15T16:51:45.242Z,4.87
2019-01-15T16:54:31.344Z,5.83
2019-01-15T16:57:12.933Z,5.30
2019-01-15T17:00:13.142Z,5.63
2019-01-15T17:02:54.232Z,5.13
2019-01-15T17:05:41.047Z,4.73
2019-01-15T17:08:28.366Z,5.20
2019-01-15T17:11:28.629Z,4.80
2019-01-15T17:14:15.703Z,5.53
2019-01-15T17:16:53.102Z,4.83
2019-01-15T17:19:40.040Z,5.53
2019-01-15T17:22:26.531Z,5.93
2019-01-15T17:25:12.314Z,4.80
2019-01-15T17:28:06.814Z,4.80
2019-01-15T17:30:55.243Z,4.60
2019-01-15T17:33:46.593Z,4.67
2019-01-15T17:36:39.714Z,5.00
2019-01-15T17:39:28.716Z,4.90
2019-01-15T17:42:25.265Z,5.23
2019-01-15T17:45:19.479Z,5.63
2019-01-15T17:48:06.399Z,6.03
2019-01-15T17:51:05.820Z,5.47
2019-01-15T17:53:52.860Z,4.87
2019-01-15T17:56:42.413Z,4.30
2019-01-15T17:59:36.966Z,5.63
2019-01-15T18:02:25.470Z,5.60
2019-01-15T18:05:12.790Z,5.03
2019-01-15T18:08:00.176Z,5.37
2019-01-15T18:10:57.790Z,5.10
2019-01-15T18:13:45.180Z,4.40
2019-01-15T18:16:26.690Z,4.57
2019-01-15T18:19:08.731Z,4.33
2019-01-15T18:22:06.455Z,5.17
2019-01-15T18:24:51.211Z,5.13
2019-01-15T18:27:38.740Z,4.80
2019-01-15T18:30:28.460Z,5.30
2019-01-15T18:33:23.590Z,4.93
2019-01-15T18:36:11.999Z,4.80
2019-01-15T18:39:09.577Z,5.90
2019-01-15T18:41:49.882Z,4.90
2019-01-15T18:44:53.690Z,5.17
2019-01-15T18:47:40.630Z,4.67
2019-01-15T18:50:29.221Z,4.47
2019-01-15T18:53:06.258Z,4.70
2019-01-15T18:55:50.710Z,4.97
2019-01-15T18:58:45.442Z,5.07
2019-01-15T19:01:32.890Z,4.43
2019-01-15T19:04:24.757Z,5.23
2019-01-15T19:06:53.989Z,4.93
2019-01-15T19:09:41.491Z,3.50
2019-01-15T19:12:20.401Z,5.57
2019-01-15T19:15:06.703Z,5.73
2019-01-15T19:17:46.428Z,6.00
2019-01-15T19:20:33.749Z,5.50
2019-01-15T19:23:25.130Z,5.17
2019-01-15T19:26:21.689Z,4.93
2019-01-15T19:29:03.345Z,5.77
2019-01-15T19:32:00.832Z,5.47
2019-01-15T19:34:58.844Z,5.13
2019-01-15T19:37:41.148Z,5.57
2019-01-15T19:40:31.155Z,4.70
2019-01-15T19:43:22.507Z,4.83
2019-01-15T19:46:20.530Z,4.63
2019-01-15T19:49:12.683Z,5.13
2019-01-15T19:52:00.108Z,4.17
2019-01-15T19:54:50.275Z,5.80
2019-01-15T19:57:37.658Z,4.37
2019-01-15T20:00:32.842Z,4.50
2019-01-15T20:03:21.176Z,4.33
2019-01-15T20:06:12.285Z,5.17
2019-01-15T20:08:55.031Z,4.43
2019-01-15T20:11:35.797Z,5.20
2019-01-15T20:14:18.627Z,4.23
2019-01-15T20:17:18.030Z,4.83
2019-01-15T20:20:00.212Z,4.50
2019-01-15T20:22:47.129Z,4.53
2019-01-15T20:25:26.658Z,3.93
2019-01-15T20:28:13.921Z,5.13
2019-01-15T20:30:53.089Z,4.20
2019-01-15T20:33:41.359Z,4.73
2019-01-15T20:36:23.159Z,5.10
2019-01-15T20:39:10.520Z,4.80
2019-01-15T20:41:49.166Z,5.50
2019-01-15T20:44:36.185Z,4.70
2019-01-15T20:47:25.807Z,5.17
2019-01-15T20:50:25.984Z,4.93
2019-01-15T20:53:13.369Z,5.10
2019-01-15T20:56:00.745Z,5.00
2019-01-15T20:59:07.838Z,5.90
2019-01-15T21:02:05.387Z,5.00
2019-01-15T21:04:56.342Z,4.93
2019-01-15T21:07:34.197Z,4.90
2019-01-15T21:10:41.507Z,4.90
2019-01-15T21:13:28.510Z,5.00
2019-01-15T21:16:17.024Z,4.37
2019-01-15T21:19:15.536Z,5.00
2019-01-15T21:22:03.961Z,4.83
2019-01-15T21:24:58.658Z,5.20
2019-01-15T21:27:45.197Z,5.13
2019-01-15T21:30:27.907Z,5.40
2019-01-15T21:33:15.036Z,4.80
2019-01-15T21:36:07.703Z,5.00
2019-01-15T21:38:51.134Z,5.63
2019-01-15T21:41:42.977Z,4.97
2019-01-15T21:44:28.291Z,4.63
2019-01-15T21:47:28.799Z,5.33
2019-01-15T21:50:12.482Z,5.07
2019-01-15T21:52:56.561Z,4.93
2019-01-15T21:55:56.807Z,5.13
2019-01-15T21:58:35.164Z,4.87
2019-01-15T22:01:23.907Z,5.13
2019-01-15T22:04:12.266Z,5.27
2019-01-15T22:06:54.885Z,4.73
2019-01-15T22:09:43.366Z,5.17
2019-01-15T22:12:25.968Z,5.40
2019-01-15T22:15:13.886Z,5.17
2019-01-15T22:18:20.616Z,5.43
2019-01-15T22:21:07.926Z,5.70
2019-01-15T22:24:08.828Z,5.50
2019-01-15T22:26:56.172Z,5.37
2019-01-15T22:29:43.626Z,5.00
2019-01-15T22:32:23.627Z,5.53
2019-01-15T22:35:17.181Z,5.20
2019-01-15T22:38:17.852Z,5.27
2019-01-15T22:40:59.662Z,5.17
2019-01-15T22:43:48.656Z,4.77
2019-01-15T22:46:28.352Z,5.20
2019-01-15T22:49:14.608Z,5.63
2019-01-15T22:51:58.269Z,5.37
2019-01-15T22:54:46.716Z,5.50
2019-01-15T22:57:30.661Z,5.00
2019-01-15T23:00:18.214Z,5.00
2019-01-15T23:03:15.824Z,5.27
2019-01-15T23:06:04.356Z,5.33
2019-01-15T23:08:42.313Z,5.40
2019-01-15T23:11:26.020Z,4.80
2019-01-15T23:14:02.624Z,4.43
2019-01-15T23:16:49.201Z,4.47
2019-01-15T23:19:49.769Z,4.17
2019-01-15T23:22:37.274Z,4.33
2019-01-15T23:25:41.423Z,4.60
2019-01-15T23:28:35.486Z,4.97
2019-01-15T23:31:28.741Z,4.23
2019-01-15T23:34:20.578Z,4.47
2019-01-15T23:37:18.878Z,4.70
2019-01-15T23:40:13.267Z,5.00
2019-01-15T23:43:14.181Z,4.43
2019-01-15T23:46:01.675Z,4.50
2019-01-15T23:48:49.578Z,4.63
2019-01-15T23:51:28.969Z,4.67
2019-01-15T23:54:07.771Z,4.80
2019-01-15T23:56:56.253Z,4.37
2019-01-15T23:59:43.510Z,5.00
